Rochester International Airport Rochester US
ICAO: KRST
IATA: RST
Category: Large
Scheduled Services: Yes

Elevation: 1317 ft
TransAlt. 18000 ft.

Airport Communications:
APP/DEP:119.2
ATIS:120.5
CTAF:118.3
GND:121.9
PRINCETON RDO:122.45
TWR:118.3
UNICOM:122.95

KRST Zoom In..

Runways:

(A) RW 02 length 7301 ft width 150 ft
---- / hdg 25

(B) RW 13 length 9033 ft width 150 ft
ILS 109.10 / hdg 131

(C) RW 20 length 7301 ft width 150 ft
---- / hdg 205

(D) RW 31 length 9033 ft width 150 ft
ILS 108.50 / hdg 311

Location; KRST
Day. 10 / Time. 06.54 Zulu
* Altimeter: 30.06
* Temperature: -02° c. -28.4°f.
* Wind from: 300° Speed 13 kn.
Dewpoint: -06° c.
Visibility: 10 Statute Miles.
Clouds: Clear (automated report).

KRST 100654Z AUTO 30013KT 10SM CLR M02/M06 A3006 RMK AO2 SLP193 T10221061 $


Wind From 300°
Speed 13 kn.

 
 
jpsmedia worldairports.se 2020   terms of use